AGS weather

San Agustin Airport
San Ignacio, Sonora, Mexico

Public forecast

Using degrees Celsius for public forecast. Weather courtesy of forecast.io.

METAR (pilot weather report)

Report is more than 6 hours old.

Closest report is Ciudad Obregón International Airport, 21.4 nm (39.6 km) E. Retrieved 2019/06/25 01:45 UTC (10 hours ago):

MMCN 250145Z 23006KT 10SM SKC 33/06 A2972 RMK HZY

TAF (pilot weather forecast)

Closest forecast is Ciudad Obregón International Airport, 21.4 nm (39.6 km) E. Retrieved 2019/06/25 06:23 UTC (5 hours ago):

TAF MMCN 250417Z 2506/2606 22005KT P6SM SKC FM251800 18010KT P6SM SCT250 FM260500 20005KT P6SM SKC